Metar z połowy godziny Komunikat METAR ze strony awiacja.imgw.pl Metar G30 EPOK METAR EPOK 240530Z 19012KT 6000 BKN010 OVC050 01/M01 Q1014 RMK 010 089 8/6 =